Time;durP1;ratioP1;P1;durP2;ratioP2;P2;SDS_P1;SDS_P2;PMS_P1;PMS_P2;Temp;Humidity;BMP_temperature;BMP_pressure;BME280_temperature;BME280_humidity;BME280_pressure;Samples;Min_cycle;Max_cycle;Signal;HPM_P1;HPM_P2
2021/12/23 00:01:43;;;;;;;34.80;14.80;;;;;;;-7.03;86.53;97730.00;5028245;28;20492;-57
2021/12/23 00:04:12;;;;;;;32.85;15.25;;;;;;;-7.04;86.61;97728.34;5015711;28;20042;-57
2021/12/23 00:06:40;;;;;;;40.13;14.10;;;;;;;-7.02;87.29;97718.50;5014076;28;20094;-56
2021/12/23 00:09:07;;;;;;;39.13;15.35;;;;;;;-6.98;87.06;97719.06;5011683;28;20092;-58
2021/12/23 00:11:34;;;;;;;38.63;14.82;;;;;;;-6.95;88.63;97716.19;5017010;28;20048;-56
2021/12/23 00:14:07;;;;;;;37.60;15.75;;;;;;;-6.92;88.16;97719.38;5021718;28;20099;-57
2021/12/23 00:16:44;;;;;;;39.13;16.27;;;;;;;-6.81;87.82;97715.00;5012998;28;20041;-55
2021/12/23 00:24:36;;;;;;;37.75;15.38;;;;;;;-6.71;87.57;97697.41;5013358;28;20068;-56
2021/12/23 00:27:03;;;;;;;36.63;15.38;;;;;;;-6.79;87.06;97697.25;5014107;28;20095;-56
2021/12/23 00:29:31;;;;;;;38.85;15.48;;;;;;;-6.59;88.16;97692.06;5021215;28;20065;-58
2021/12/23 00:31:59;;;;;;;42.88;16.23;;;;;;;-6.64;87.67;97691.63;5021544;28;20041;-58
2021/12/23 00:34:26;;;;;;;32.22;14.93;;;;;;;-6.61;88.68;97684.28;5023082;28;20655;-58
2021/12/23 00:36:54;;;;;;;40.05;15.98;;;;;;;-6.58;88.68;97684.00;5014861;28;20045;-59
2021/12/23 00:39:21;;;;;;;36.40;16.08;;;;;;;-6.60;86.61;97680.66;5017061;28;20054;-58
2021/12/23 00:41:48;;;;;;;35.28;15.50;;;;;;;-6.54;87.71;97674.03;5020214;28;20053;-57
2021/12/23 00:44:14;;;;;;;30.92;14.95;;;;;;;-6.63;87.57;97677.47;5022500;28;20041;-59
2021/12/23 00:46:41;;;;;;;34.30;14.57;;;;;;;-6.53;87.12;97681.81;5026657;28;20440;-56
2021/12/23 00:49:08;;;;;;;37.67;15.02;;;;;;;-6.57;86.39;97680.41;5015729;28;20050;-58
2021/12/23 00:51:35;;;;;;;32.78;14.68;;;;;;;-6.68;87.98;97678.72;5018066;28;20113;-54
2021/12/23 00:54:05;;;;;;;40.38;15.65;;;;;;;-6.69;88.24;97677.06;5017858;28;20104;-56
2021/12/23 00:56:36;;;;;;;37.15;15.35;;;;;;;-6.80;87.16;97670.09;5026636;28;20559;-57
2021/12/23 00:59:08;;;;;;;32.63;15.05;;;;;;;-6.74;87.92;97660.00;5013517;28;20046;-59
2021/12/23 01:01:35;;;;;;;33.97;14.50;;;;;;;-6.76;87.37;97659.28;5021685;28;20060;-59
2021/12/23 01:04:03;;;;;;;38.42;14.73;;;;;;;-6.73;88.25;97651.97;5018754;28;20049;-58
2021/12/23 01:06:29;;;;;;;37.63;14.70;;;;;;;-6.60;88.18;97656.97;5023042;28;20040;-59
2021/12/23 01:08:56;;;;;;;32.63;13.90;;;;;;;-6.55;87.98;97653.94;5020395;28;20098;-55
2021/12/23 01:11:24;;;;;;;31.02;14.13;;;;;;;-6.57;87.92;97655.84;5024367;28;20056;-58
2021/12/23 01:14:03;;;;;;;35.80;14.45;;;;;;;-6.59;87.31;97650.75;5023601;28;20108;-58
2021/12/23 01:16:48;;;;;;;31.45;14.15;;;;;;;-6.54;88.52;97648.53;5023536;28;20056;-59
2021/12/23 01:19:17;;;;;;;32.05;13.07;;;;;;;-6.43;87.47;97652.00;5021462;28;20034;-59
2021/12/23 01:21:44;;;;;;;33.88;15.02;;;;;;;-6.40;87.76;97631.50;5011872;28;20048;-59
2021/12/23 01:24:11;;;;;;;34.60;15.05;;;;;;;-6.44;87.43;97627.47;5031318;28;20491;-58
2021/12/23 01:26:38;;;;;;;40.40;15.55;;;;;;;-6.40;87.16;97622.75;5020348;28;20097;-59
2021/12/23 01:29:05;;;;;;;31.85;14.18;;;;;;;-6.39;87.27;97616.50;5022834;28;20049;-58
2021/12/23 01:31:34;;;;;;;35.65;14.48;;;;;;;-6.37;86.78;97619.00;5018938;28;20103;-57
2021/12/23 01:34:01;;;;;;;35.08;14.13;;;;;;;-6.37;87.70;97625.13;5023336;28;20529;-57
2021/12/23 01:36:28;;;;;;;32.13;14.65;;;;;;;-6.30;87.13;97614.84;5026174;28;20098;-55
2021/12/23 01:38:55;;;;;;;34.33;13.38;;;;;;;-6.25;86.72;97624.97;5025162;28;20416;-57
2021/12/23 01:41:23;;;;;;;28.05;13.27;;;;;;;-6.25;86.60;97625.81;5022816;28;20641;-59
2021/12/23 01:43:52;;;;;;;30.77;14.48;;;;;;;-6.17;86.77;97615.41;5026656;28;20068;-59
2021/12/23 01:46:19;;;;;;;36.83;14.18;;;;;;;-6.14;86.57;97611.66;5013408;28;20057;-59
2021/12/23 01:48:45;;;;;;;36.22;14.63;;;;;;;-6.06;85.91;97605.66;5017794;28;20045;-56
2021/12/23 01:51:12;;;;;;;30.00;13.73;;;;;;;-6.03;86.11;97600.94;5025176;28;20037;-59
2021/12/23 01:53:39;;;;;;;29.73;13.38;;;;;;;-6.00;85.84;97594.53;5022624;28;20107;-59
2021/12/23 01:56:05;;;;;;;31.30;14.48;;;;;;;-5.94;85.91;97595.78;5035022;28;20056;-57
2021/12/23 01:58:36;;;;;;;31.40;14.05;;;;;;;-5.91;85.20;97585.78;5027745;28;20454;-58
2021/12/23 02:01:03;;;;;;;28.65;13.05;;;;;;;-5.88;85.65;97590.78;5017657;28;20115;-59
2021/12/23 02:03:30;;;;;;;30.20;13.55;;;;;;;-5.94;85.83;97598.44;5035623;28;20554;-59
2021/12/23 02:05:57;;;;;;;30.02;14.82;;;;;;;-5.97;86.05;97585.50;5017432;28;20046;-59
2021/12/23 02:08:31;;;;;;;31.55;13.77;;;;;;;-5.94;85.05;97580.78;5010582;28;20116;-57
2021/12/23 02:10:59;;;;;;;33.25;13.63;;;;;;;-5.98;85.70;97581.22;5019747;28;20046;-57
2021/12/23 02:13:25;;;;;;;31.85;14.23;;;;;;;-6.00;85.78;97581.38;5028862;28;20044;-59
2021/12/23 02:15:52;;;;;;;31.08;14.02;;;;;;;-6.03;86.09;97571.13;5014178;28;20050;-57
2021/12/23 02:18:20;;;;;;;28.05;12.88;;;;;;;-6.10;84.83;97570.00;5016283;28;20037;-59
2021/12/23 02:20:47;;;;;;;32.25;13.88;;;;;;;-5.93;85.86;97569.25;5024562;28;20095;-58
2021/12/23 02:23:14;;;;;;;34.47;15.32;;;;;;;-6.03;85.23;97568.47;5024524;28;20045;-58
2021/12/23 02:25:40;;;;;;;33.40;13.20;;;;;;;-5.90;85.92;97563.69;5022458;28;20563;-53
2021/12/23 02:28:10;;;;;;;33.28;14.73;;;;;;;-5.87;85.36;97562.59;5014153;28;20038;-57
2021/12/23 02:30:38;;;;;;;32.28;15.25;;;;;;;-5.75;85.09;97561.44;5014654;28;20040;-57
2021/12/23 02:33:07;;;;;;;31.77;14.25;;;;;;;-5.65;85.51;97556.13;5020805;28;20111;-57
2021/12/23 02:35:35;;;;;;;38.13;16.85;;;;;;;-5.63;84.97;97556.00;5014972;28;20417;-59
2021/12/23 02:38:03;;;;;;;30.80;14.75;;;;;;;-5.66;85.53;97554.50;5014641;28;20452;-58
2021/12/23 02:40:31;;;;;;;29.08;14.07;;;;;;;-5.61;84.94;97546.97;5017021;28;20052;-58
2021/12/23 02:43:11;;;;;;;33.30;16.33;;;;;;;-5.62;84.86;97528.63;5016685;28;20536;-56
2021/12/23 02:45:38;;;;;;;31.45;15.25;;;;;;;-5.61;84.99;97539.06;5015077;28;20054;-57
2021/12/23 02:48:14;;;;;;;36.60;16.30;;;;;;;-5.51;84.88;97532.91;5027863;28;20121;-56
2021/12/23 02:50:41;;;;;;;35.45;15.02;;;;;;;-5.51;84.60;97527.63;5028855;28;20103;-58
2021/12/23 02:53:08;;;;;;;30.80;13.70;;;;;;;-5.44;84.00;97523.44;5015928;28;20497;-57
2021/12/23 02:55:35;;;;;;;27.58;13.43;;;;;;;-5.40;84.60;97523.97;5019567;28;20584;-58
2021/12/23 02:58:02;;;;;;;29.98;13.52;;;;;;;-5.38;84.12;97522.81;5027703;28;20056;-56
2021/12/23 03:00:29;;;;;;;32.33;13.70;;;;;;;-5.39;84.48;97528.25;5015561;28;20049;-59
2021/12/23 03:02:56;;;;;;;31.13;12.52;;;;;;;-5.39;83.97;97523.81;5024063;28;20602;-58
2021/12/23 03:05:24;;;;;;;30.70;12.32;;;;;;;-5.32;84.19;97513.50;5016503;28;20052;-55
2021/12/23 03:07:50;;;;;;;33.10;13.07;;;;;;;-5.23;83.40;97520.53;5017585;28;20060;-55
2021/12/23 03:10:21;;;;;;;29.83;14.57;;;;;;;-5.26;83.55;97514.72;5028376;28;20112;-56
2021/12/23 03:12:49;;;;;;;29.35;14.18;;;;;;;-5.25;83.60;97519.84;5027329;28;20041;-57
2021/12/23 03:15:16;;;;;;;30.52;13.75;;;;;;;-5.26;83.71;97510.28;5020578;28;20655;-58
2021/12/23 03:17:43;;;;;;;29.20;13.88;;;;;;;-5.37;84.35;97505.19;5028135;28;20072;-59
2021/12/23 03:20:10;;;;;;;28.98;13.02;;;;;;;-5.32;84.07;97504.75;5017130;28;20464;-59
2021/12/23 03:22:37;;;;;;;30.90;14.70;;;;;;;-5.26;83.64;97505.00;5024780;28;20059;-58
2021/12/23 03:25:04;;;;;;;28.33;14.38;;;;;;;-5.34;83.92;97499.63;5024249;28;20038;-59
2021/12/23 03:27:31;;;;;;;30.73;13.80;;;;;;;-5.32;83.89;97497.66;5017953;28;20559;-58
2021/12/23 03:29:57;;;;;;;31.35;15.25;;;;;;;-5.42;83.89;97488.97;5018929;28;20041;-56
2021/12/23 03:32:24;;;;;;;34.50;13.73;;;;;;;-5.44;84.01;97473.28;5032246;28;20103;-59
2021/12/23 03:34:50;;;;;;;30.48;12.95;;;;;;;-5.45;84.95;97462.88;5024456;28;20543;-58
2021/12/23 03:37:17;;;;;;;29.25;13.90;;;;;;;-5.37;84.14;97461.16;5018607;28;20042;-59
2021/12/23 03:39:44;;;;;;;30.55;14.20;;;;;;;-5.33;83.89;97461.69;5023896;28;20030;-58
2021/12/23 03:42:10;;;;;;;28.25;12.65;;;;;;;-5.20;83.37;97456.03;5022076;28;20108;-55
2021/12/23 03:44:37;;;;;;;31.73;14.45;;;;;;;-5.18;83.34;97459.38;5022366;28;20040;-57
2021/12/23 03:47:04;;;;;;;27.40;13.10;;;;;;;-5.09;83.28;97466.38;5012994;28;20060;-57
2021/12/23 03:49:30;;;;;;;27.65;12.88;;;;;;;-5.13;83.50;97457.09;5022208;28;20038;-57
2021/12/23 03:51:57;;;;;;;34.13;14.80;;;;;;;-5.05;83.79;97455.53;5020901;28;20046;-56
2021/12/23 03:54:24;;;;;;;29.15;13.05;;;;;;;-5.01;83.09;97456.91;5026721;28;20111;-57
2021/12/23 03:56:50;;;;;;;28.83;12.25;;;;;;;-4.94;83.07;97447.38;5039223;28;20208;-59
2021/12/23 03:59:17;;;;;;;27.45;12.48;;;;;;;-4.91;83.11;97447.06;5014327;28;20038;-55
2021/12/23 04:01:44;;;;;;;20.63;10.15;;;;;;;-4.77;82.19;97444.88;5026649;28;20125;-56
2021/12/23 04:04:10;;;;;;;22.85;9.85;;;;;;;-4.61;82.06;97450.28;5026618;28;20622;-55
2021/12/23 04:06:37;;;;;;;23.60;11.27;;;;;;;-4.50;81.64;97435.19;5017345;28;20508;-57
2021/12/23 04:09:04;;;;;;;25.98;13.25;;;;;;;-4.54;81.33;97433.84;5030116;28;20639;-57
2021/12/23 04:11:32;;;;;;;16.13;8.07;;;;;;;-4.57;81.94;97440.28;5028667;28;20041;-56
2021/12/23 04:13:58;;;;;;;20.77;10.93;;;;;;;-4.59;81.76;97439.56;5026768;28;20111;-58
2021/12/23 04:16:25;;;;;;;24.65;11.48;;;;;;;-4.48;81.56;97433.22;5021993;28;20045;-59
2021/12/23 04:18:54;;;;;;;26.33;10.55;;;;;;;-4.51;81.63;97437.00;5035096;28;20037;-58
2021/12/23 04:21:21;;;;;;;16.23;8.95;;;;;;;-4.38;81.22;97433.97;5031873;28;20071;-58
2021/12/23 04:23:48;;;;;;;20.10;10.10;;;;;;;-4.35;80.80;97417.75;5023874;28;20057;-57
2021/12/23 04:26:15;;;;;;;22.90;10.80;;;;;;;-4.37;80.85;97422.38;5026771;28;20042;-58
2021/12/23 04:28:48;;;;;;;22.20;10.90;;;;;;;-4.40;81.16;97416.56;5023761;28;20100;-59
2021/12/23 04:31:17;;;;;;;26.15;12.63;;;;;;;-4.41;81.19;97428.13;5029479;28;20111;-56
2021/12/23 04:33:46;;;;;;;22.15;11.40;;;;;;;-4.35;80.71;97433.63;5029861;28;20073;-55
2021/12/23 04:36:13;;;;;;;19.98;10.30;;;;;;;-4.22;80.31;97442.97;5027440;28;20394;-58
2021/12/23 04:38:41;;;;;;;22.33;8.88;;;;;;;-4.14;80.16;97434.25;5026697;28;20091;-59
2021/12/23 04:41:08;;;;;;;26.52;11.07;;;;;;;-4.05;80.17;97418.25;5028030;28;20045;-59
2021/12/23 04:43:35;;;;;;;20.48;9.10;;;;;;;-4.16;79.50;97410.63;5025363;28;20520;-58
2021/12/23 04:46:02;;;;;;;23.33;12.13;;;;;;;-4.33;80.31;97417.63;5016544;28;20037;-57
2021/12/23 04:48:30;;;;;;;21.05;10.88;;;;;;;-4.50;81.11;97408.75;5014379;28;20091;-55
2021/12/23 04:50:57;;;;;;;31.65;13.48;;;;;;;-4.67;81.35;97403.34;5032186;28;20049;-56
2021/12/23 04:53:24;;;;;;;26.33;11.48;;;;;;;-4.67;81.94;97399.88;5030182;28;20102;-58
2021/12/23 04:55:50;;;;;;;24.17;12.30;;;;;;;-4.77;82.05;97402.59;5036305;28;20049;-57
2021/12/23 04:58:17;;;;;;;20.58;11.00;;;;;;;-4.82;82.19;97397.78;5025827;28;20057;-57
2021/12/23 05:00:48;;;;;;;27.33;12.75;;;;;;;-5.00;82.22;97392.53;5028527;28;20444;-58
2021/12/23 05:03:17;;;;;;;26.38;12.25;;;;;;;-5.00;82.64;97400.44;5022782;28;20064;-57
2021/12/23 05:05:44;;;;;;;21.10;10.57;;;;;;;-5.03;82.71;97398.09;5025335;28;20041;-59
2021/12/23 05:08:12;;;;;;;25.02;11.88;;;;;;;-5.10;83.04;97400.53;5028366;28;20056;-58
2021/12/23 05:10:40;;;;;;;26.73;13.50;;;;;;;-5.04;83.09;97402.56;5031758;28;20672;-58
2021/12/23 05:13:06;;;;;;;24.65;10.75;;;;;;;-5.09;83.17;97395.09;5032021;28;20048;-59
2021/12/23 05:15:33;;;;;;;25.45;11.68;;;;;;;-5.05;82.99;97408.00;5028320;28;20053;-56
2021/12/23 05:18:00;;;;;;;22.65;11.23;;;;;;;-4.96;82.36;97407.09;5027617;28;20509;-59
2021/12/23 05:20:27;;;;;;;22.92;10.10;;;;;;;-4.76;80.96;97409.56;5031951;28;20045;-59
2021/12/23 05:22:54;;;;;;;23.05;10.98;;;;;;;-4.69;80.70;97413.22;5029550;28;20416;-59
2021/12/23 05:25:21;;;;;;;20.52;10.70;;;;;;;-4.75;81.41;97411.22;5025792;28;20111;-56
2021/12/23 05:27:52;;;;;;;23.67;10.43;;;;;;;-4.75;81.97;97411.22;5027840;28;20045;-59
2021/12/23 05:30:19;;;;;;;29.40;10.80;;;;;;;-4.81;81.42;97411.81;5021950;28;20114;-59
2021/12/23 05:32:46;;;;;;;30.73;14.65;;;;;;;-4.99;81.59;97404.75;5026237;28;20107;-58
2021/12/23 05:35:15;;;;;;;22.92;10.52;;;;;;;-5.22;81.59;97405.22;5023604;28;20037;-57
2021/12/23 05:37:42;;;;;;;24.00;11.45;;;;;;;-5.71;84.54;97406.38;5031773;28;20048;-56
2021/12/23 05:40:11;;;;;;;24.10;10.38;;;;;;;-5.84;84.81;97395.31;5032857;28;20038;-59
2021/12/23 05:42:38;;;;;;;24.55;10.82;;;;;;;-5.75;83.76;97389.19;5035226;28;20044;-55
2021/12/23 05:45:05;;;;;;;22.92;9.65;;;;;;;-5.93;84.58;97376.75;5035040;28;20103;-56
2021/12/23 05:47:31;;;;;;;22.77;10.48;;;;;;;-5.84;85.25;97377.69;5033289;28;20056;-59
2021/12/23 05:49:58;;;;;;;25.23;10.32;;;;;;;-5.82;84.68;97377.53;5025060;28;20038;-59
2021/12/23 05:52:24;;;;;;;27.60;11.55;;;;;;;-5.83;84.41;97358.25;5031303;28;20049;-57
2021/12/23 05:54:51;;;;;;;23.13;10.77;;;;;;;-5.74;85.64;97367.91;5034471;28;20037;-59
2021/12/23 05:57:17;;;;;;;23.52;10.23;;;;;;;-5.59;85.23;97372.69;5024995;28;20049;-59
2021/12/23 05:59:45;;;;;;;27.38;10.50;;;;;;;-5.41;83.85;97370.06;5027118;28;20041;-58
2021/12/23 06:02:12;;;;;;;20.23;9.95;;;;;;;-5.35;82.58;97369.47;5030415;28;20508;-58
2021/12/23 06:04:38;;;;;;;22.70;10.75;;;;;;;-5.19;82.36;97362.69;5021104;28;20044;-58
2021/12/23 06:07:05;;;;;;;22.58;10.55;;;;;;;-5.61;83.74;97362.28;5028504;28;20056;-58
2021/12/23 06:09:32;;;;;;;24.77;11.25;;;;;;;-5.55;83.99;97363.50;5021337;28;20038;-59
2021/12/23 06:11:58;;;;;;;31.27;13.65;;;;;;;-5.63;83.44;97364.22;5019676;28;20045;-58
2021/12/23 06:14:25;;;;;;;24.33;11.30;;;;;;;-5.66;82.76;97353.16;5028536;28;20431;-57
2021/12/23 06:16:51;;;;;;;24.50;11.07;;;;;;;-5.61;83.48;97356.16;5040713;28;20045;-59
2021/12/23 06:19:18;;;;;;;26.95;11.73;;;;;;;-5.58;83.81;97358.50;5033701;28;20041;-58
2021/12/23 06:21:45;;;;;;;23.42;10.13;;;;;;;-5.24;83.70;97351.72;5037993;28;20673;-57
2021/12/23 06:24:11;;;;;;;24.65;11.88;;;;;;;-5.25;83.01;97355.34;5035610;28;20259;-58
2021/12/23 06:26:38;;;;;;;22.33;10.43;;;;;;;-5.19;82.63;97360.03;5023086;28;20049;-57
2021/12/23 06:29:04;;;;;;;24.77;11.18;;;;;;;-5.12;82.16;97374.28;5032942;28;20048;-57
2021/12/23 06:31:32;;;;;;;22.13;10.65;;;;;;;-5.13;82.21;97375.25;5031762;28;20405;-56
2021/12/23 06:33:58;;;;;;;22.50;10.18;;;;;;;-5.03;83.02;97384.91;5037268;28;20520;-56
2021/12/23 06:36:25;;;;;;;26.98;11.40;;;;;;;-4.79;82.27;97392.19;5042063;28;20064;-57
2021/12/23 06:38:51;;;;;;;22.60;9.85;;;;;;;-4.67;81.00;97391.94;5042624;28;20053;-57
2021/12/23 06:41:18;;;;;;;21.83;8.98;;;;;;;-4.75;80.94;97385.63;5042730;28;20049;-55
2021/12/23 06:43:46;;;;;;;18.42;8.88;;;;;;;-4.78;80.92;97390.38;5043315;28;20049;-59
2021/12/23 06:46:13;;;;;;;20.40;9.95;;;;;;;-4.87;81.10;97371.84;5041137;28;20056;-57
2021/12/23 06:48:39;;;;;;;23.38;10.32;;;;;;;-5.07;82.16;97370.34;5036499;28;20045;-57
2021/12/23 06:51:06;;;;;;;24.60;10.45;;;;;;;-5.26;81.81;97380.94;5040692;28;20049;-59
2021/12/23 06:53:33;;;;;;;21.02;10.35;;;;;;;-5.46;83.33;97372.31;5040549;28;20116;-59
2021/12/23 06:56:00;;;;;;;21.55;9.93;;;;;;;-5.51;83.74;97370.13;5039284;28;20045;-57
2021/12/23 06:58:27;;;;;;;25.60;11.10;;;;;;;-5.63;83.20;97364.22;5042125;28;20039;-58
2021/12/23 07:00:54;;;;;;;22.75;10.45;;;;;;;-5.82;84.43;97367.00;5037539;28;20037;-58
2021/12/23 07:03:23;;;;;;;27.08;11.98;;;;;;;-5.81;84.42;97363.38;5019999;28;20136;-56
2021/12/23 07:05:56;;;;;;;24.83;10.23;;;;;;;-5.59;85.34;97358.66;5034573;28;20098;-58
2021/12/23 07:08:28;;;;;;;26.58;11.20;;;;;;;-5.21;83.80;97356.69;5021710;28;20045;-57
2021/12/23 07:10:55;;;;;;;25.55;11.50;;;;;;;-5.09;82.70;97358.13;5027755;28;20045;-56
2021/12/23 07:13:22;;;;;;;31.73;14.63;;;;;;;-5.11;82.99;97351.34;5028936;28;20049;-59
2021/12/23 07:15:49;;;;;;;26.20;13.20;;;;;;;-5.07;83.14;97354.50;5021753;28;20064;-58
2021/12/23 07:18:15;;;;;;;25.63;12.65;;;;;;;-5.14;82.85;97349.84;5025020;28;20119;-58
2021/12/23 07:20:42;;;;;;;25.95;10.68;;;;;;;-5.10;82.50;97356.47;5024522;28;20091;-59
2021/12/23 07:23:11;;;;;;;26.02;11.68;;;;;;;-5.01;83.17;97361.81;5028066;28;20214;-57
2021/12/23 07:25:37;;;;;;;27.95;12.77;;;;;;;-5.20;82.51;97368.09;5028329;28;20413;-62
2021/12/23 07:28:04;;;;;;;27.08;13.18;;;;;;;-5.07;83.23;97354.50;5024227;28;20045;-61
2021/12/23 07:30:31;;;;;;;26.98;11.88;;;;;;;-5.03;83.57;97343.50;5017907;28;20041;-62
2021/12/23 07:33:00;;;;;;;29.83;12.05;;;;;;;-4.99;82.93;97341.38;5027207;28;20082;-61
2021/12/23 07:35:28;;;;;;;26.50;11.73;;;;;;;-4.90;82.61;97356.28;5023497;28;20740;-62
2021/12/23 07:37:57;;;;;;;24.05;12.25;;;;;;;-4.77;82.19;97347.13;5022534;28;20122;-62
2021/12/23 07:40:23;;;;;;;24.08;11.15;;;;;;;-4.68;82.34;97338.28;5027769;28;20045;-61
2021/12/23 07:42:58;;;;;;;23.63;11.45;;;;;;;-4.69;81.73;97336.63;5022027;28;20048;-61
2021/12/23 07:45:28;;;;;;;24.52;11.15;;;;;;;-4.63;81.47;97345.75;5023200;28;20037;-60
2021/12/23 07:47:55;;;;;;;27.35;11.52;;;;;;;-4.62;81.31;97342.94;5018133;28;20132;-62
2021/12/23 07:50:23;;;;;;;29.42;11.85;;;;;;;-4.60;81.99;97338.31;5027369;28;20045;-60
2021/12/23 07:52:50;;;;;;;23.27;11.27;;;;;;;-4.55;81.96;97334.38;5023488;28;20045;-61
2021/12/23 07:55:16;;;;;;;24.98;10.77;;;;;;;-4.51;81.05;97335.72;5025716;28;20052;-60
2021/12/23 07:57:43;;;;;;;22.58;9.98;;;;;;;-4.36;81.20;97333.31;5023977;28;20050;-62
2021/12/23 08:00:10;;;;;;;26.08;13.65;;;;;;;-4.28;80.85;97333.38;5042658;28;20622;-62
2021/12/23 08:02:41;;;;;;;23.88;10.40;;;;;;;-4.21;80.98;97334.41;5023280;28;20152;-61
2021/12/23 08:05:08;;;;;;;23.90;10.23;;;;;;;-4.05;80.66;97330.97;5014961;28;20529;-61
2021/12/23 08:07:35;;;;;;;32.20;14.45;;;;;;;-4.00;80.25;97332.31;5014238;28;20046;-60
2021/12/23 08:10:03;;;;;;;27.33;12.90;;;;;;;-4.02;80.86;97327.19;5020827;28;20044;-61
2021/12/23 08:12:29;;;;;;;28.48;12.52;;;;;;;-3.85;81.16;97322.78;5019757;28;20041;-60
2021/12/23 08:14:56;;;;;;;20.90;10.23;;;;;;;-3.74;81.04;97320.81;5025248;28;20553;-61
2021/12/23 08:17:33;;;;;;;28.70;14.52;;;;;;;-3.81;81.26;97307.41;5024109;28;20125;-60
2021/12/23 08:20:00;;;;;;;28.48;13.43;;;;;;;-3.72;80.99;97303.78;5021119;28;20052;-60
2021/12/23 08:22:27;;;;;;;22.45;11.85;;;;;;;-3.58;80.91;97290.94;5021624;28;20439;-63
2021/12/23 08:24:54;;;;;;;23.40;10.55;;;;;;;-3.43;80.83;97299.88;5026847;28;20041;-63
2021/12/23 08:27:26;;;;;;;26.10;13.30;;;;;;;-3.36;81.02;97312.47;5030990;28;20049;-63
2021/12/23 08:29:54;;;;;;;24.42;11.60;;;;;;;-3.32;80.41;97306.66;5018601;28;20453;-63
2021/12/23 08:32:21;;;;;;;30.90;13.05;;;;;;;-3.23;80.64;97304.84;5020864;28;20057;-62
2021/12/23 08:34:48;;;;;;;29.77;12.02;;;;;;;-3.17;80.48;97306.00;5023347;28;20060;-63
2021/12/23 08:37:14;;;;;;;23.92;10.93;;;;;;;-3.08;80.69;97312.97;5022321;28;20046;-63
2021/12/23 08:39:42;;;;;;;22.00;11.27;;;;;;;-3.02;80.21;97312.28;5017801;28;20040;-63
2021/12/23 08:42:09;;;;;;;24.00;11.27;;;;;;;-2.92;79.90;97316.56;5019976;28;20096;-63
2021/12/23 08:44:36;;;;;;;17.70;9.10;;;;;;;-2.87;80.11;97304.47;5020079;28;20048;-63
2021/12/23 08:47:03;;;;;;;29.45;10.65;;;;;;;-2.80;79.82;97304.63;5019503;28;20061;-63
2021/12/23 08:49:29;;;;;;;23.42;12.43;;;;;;;-2.80;80.46;97293.22;5026426;28;20041;-62
2021/12/23 08:51:56;;;;;;;25.63;12.25;;;;;;;-2.78;80.05;97283.25;5027935;28;20106;-63
2021/12/23 08:54:23;;;;;;;21.33;9.80;;;;;;;-2.63;80.16;97275.44;5018001;28;20045;-62
2021/12/23 08:56:49;;;;;;;18.38;8.73;;;;;;;-2.43;79.12;97285.66;5021806;28;20067;-60
2021/12/23 08:59:17;;;;;;;20.40;8.85;;;;;;;-2.34;79.01;97281.97;5031751;28;20057;-63
2021/12/23 09:01:45;;;;;;;20.35;9.30;;;;;;;-2.28;79.03;97277.81;5025699;28;20614;-60
2021/12/23 09:04:12;;;;;;;20.05;9.95;;;;;;;-2.12;79.10;97282.22;5030044;28;20050;-60
2021/12/23 09:06:39;;;;;;;17.85;9.02;;;;;;;-2.09;79.04;97285.34;5019204;28;20480;-64
2021/12/23 09:09:07;;;;;;;20.88;10.23;;;;;;;-2.05;79.14;97288.50;5016235;28;20106;-64
2021/12/23 09:11:35;;;;;;;34.50;15.98;;;;;;;-2.00;78.96;97283.50;5020737;28;20037;-64
2021/12/23 09:14:02;;;;;;;31.20;14.63;;;;;;;-1.97;79.07;97274.34;5026078;28;20053;-63
2021/12/23 09:16:29;;;;;;;22.98;10.98;;;;;;;-1.89;79.46;97289.41;5020531;28;20420;-61
2021/12/23 09:18:55;;;;;;;19.95;8.88;;;;;;;-1.81;79.00;97294.66;5021176;28;20096;-60
2021/12/23 09:21:22;;;;;;;44.33;19.60;;;;;;;-1.76;78.60;97294.16;5015304;28;20053;-61
2021/12/23 09:24:00;;;;;;;25.52;12.30;;;;;;;-1.60;78.57;97285.25;5023292;28;20042;-61
2021/12/23 09:26:29;;;;;;;30.33;14.90;;;;;;;-1.64;78.92;97283.94;5028100;28;20046;-61
2021/12/23 09:34:14;;;;;;;17.65;8.43;;;;;;;-1.31;78.26;97278.41;5036757;28;20515;-64
2021/12/23 09:36:40;;;;;;;21.95;11.35;;;;;;;-1.22;78.45;97276.53;5042687;28;20056;-61
2021/12/23 09:39:10;;;;;;;21.02;8.48;;;;;;;-1.07;77.57;97277.38;5021532;28;20056;-64
2021/12/23 09:41:38;;;;;;;17.98;8.93;;;;;;;-1.03;78.08;97275.19;5020998;28;20520;-64
2021/12/23 09:44:07;;;;;;;22.45;10.07;;;;;;;-0.93;77.68;97266.94;5040668;28;20401;-63
2021/12/23 09:46:36;;;;;;;18.63;10.07;;;;;;;-0.70;77.12;97266.88;5023108;28;20038;-64
2021/12/23 09:49:04;;;;;;;15.27;7.55;;;;;;;-0.47;76.26;97258.03;5025308;28;20046;-63
2021/12/23 09:51:33;;;;;;;17.15;7.72;;;;;;;-0.24;75.60;97259.72;5028458;28;20448;-63
2021/12/23 09:54:04;;;;;;;13.10;7.00;;;;;;;0.00;74.63;97265.78;5020709;28;20108;-63
2021/12/23 09:56:32;;;;;;;16.30;7.63;;;;;;;0.11;74.06;97254.63;5025595;28;20045;-62
2021/12/23 09:59:00;;;;;;;18.83;7.70;;;;;;;0.23;73.98;97260.25;5025772;28;20041;-66
2021/12/23 10:01:31;;;;;;;13.93;7.78;;;;;;;0.15;74.14;97255.09;5019948;28;20508;-67
2021/12/23 10:03:58;;;;;;;14.07;7.20;;;;;;;0.27;73.83;97258.06;5030233;28;20677;-65
2021/12/23 10:06:26;;;;;;;16.23;7.60;;;;;;;0.36;73.45;97254.28;5024333;28;20045;-67
2021/12/23 10:08:54;;;;;;;17.75;7.15;;;;;;;0.49;72.93;97247.44;5017108;28;20061;-64
2021/12/23 10:27:02;;;;;;;14.50;7.28;;;;;;;0.73;72.83;97240.88;5023716;28;20053;-62
2021/12/23 10:30:15;;;;;;;12.20;6.93;;;;;;;1.24;71.76;97239.00;5024986;28;20064;-65
2021/12/23 10:31:28;;;;;;;13.00;7.00;;;;;;;1.29;71.70;97233.09;5023873;28;20049;-66
2021/12/23 10:37:21;;;;;;;12.13;6.15;;;;;;;1.71;71.58;97240.28;5029915;28;20049;-61
2021/12/23 10:39:49;;;;;;;12.10;6.55;;;;;;;1.77;71.55;97236.81;5026767;28;20055;-65
2021/12/23 10:42:20;;;;;;;11.23;5.55;;;;;;;1.72;71.86;97231.22;5029970;28;20045;-62
2021/12/23 10:44:57;;;;;;;17.20;10.63;;;;;;;1.55;72.85;97219.06;5020764;28;20053;-63
2021/12/23 10:47:42;;;;;;;15.55;8.15;;;;;;;1.60;72.73;97201.63;5024844;28;20080;-63
2021/12/23 10:50:33;;;;;;;12.98;7.93;;;;;;;1.76;71.95;97203.97;5031359;28;20104;-65
2021/12/23 10:53:29;;;;;;;11.18;6.32;;;;;;;2.00;71.51;97195.63;5025227;28;20544;-65
2021/12/23 10:59:11;;;;;;;12.23;5.57;;;;;;;2.12;71.53;97190.50;5022203;28;20037;-61
2021/12/23 11:02:11;;;;;;;14.65;8.25;;;;;;;2.13;71.43;97189.50;5019852;28;20041;-62
2021/12/23 11:05:11;;;;;;;12.98;6.35;;;;;;;2.26;70.79;97183.34;5026713;28;20047;-62
2021/12/23 11:38:58;;;;;;;15.45;7.65;;;;;;;2.85;70.64;97140.78;5024541;28;20555;-61
2021/12/23 11:43:57;;;;;;;12.10;7.18;;;;;;;2.79;70.42;97129.06;5024506;28;20045;-61
2021/12/23 11:46:52;;;;;;;11.20;6.32;;;;;;;2.90;70.28;97113.41;5023869;28;20045;-59
2021/12/23 11:49:20;;;;;;;11.80;6.32;;;;;;;3.04;70.22;97116.88;5031091;28;20046;-59
2021/12/23 11:54:21;;;;;;;11.65;5.93;;;;;;;3.24;69.59;97106.94;5023379;28;20480;-59
2021/12/23 11:56:53;;;;;;;13.23;6.25;;;;;;;3.28;69.38;97096.63;5024879;28;20056;-59
2021/12/23 11:59:20;;;;;;;;;;;;;;;3.55;68.70;97096.53;5026017;28;20083;-59
2021/12/23 12:01:53;;;;;;;9.80;5.68;;;;;;;3.56;68.27;97097.34;5023907;28;19979;-63
2021/12/23 12:04:24;;;;;;;11.65;6.28;;;;;;;3.40;69.13;97091.47;5031308;28;20063;-57
2021/12/23 12:06:53;;;;;;;14.55;6.50;;;;;;;3.52;68.52;97096.97;5028887;28;20131;-63
2021/12/23 12:09:31;;;;;;;17.27;7.68;;;;;;;3.61;68.36;97087.63;5030123;28;20045;-61
2021/12/23 12:12:18;;;;;;;12.07;5.93;;;;;;;3.72;68.05;97091.50;5028187;28;20045;-66
2021/12/23 12:14:46;;;;;;;12.27;6.35;;;;;;;3.59;68.56;97080.84;5013500;28;20049;-64
2021/12/23 12:17:25;;;;;;;10.63;5.75;;;;;;;3.58;68.46;97080.03;5020721;28;20705;-63
2021/12/23 12:20:08;;;;;;;12.27;6.57;;;;;;;3.57;68.86;97066.88;5026101;28;20097;-67
2021/12/23 12:23:11;;;;;;;10.98;6.40;;;;;;;3.46;69.41;97068.38;5036222;28;20038;-61
2021/12/23 12:25:38;;;;;;;11.45;6.13;;;;;;;3.44;69.55;97065.06;5019421;28;20057;-63
2021/12/23 12:28:05;;;;;;;12.13;6.75;;;;;;;3.45;69.60;97061.34;5023386;28;20052;-63
2021/12/23 12:30:38;;;;;;;15.60;7.97;;;;;;;3.50;69.24;97064.22;5020397;28;20038;-61
2021/12/23 12:33:10;;;;;;;11.52;6.50;;;;;;;3.55;68.98;97066.25;5024964;28;20402;-61
2021/12/23 12:35:39;;;;;;;14.27;6.43;;;;;;;3.52;68.96;97067.50;5023681;28;20046;-60
2021/12/23 12:38:21;;;;;;;11.85;6.20;;;;;;;3.50;69.33;97057.00;5036058;28;20046;-61